Berge Ishizuchi — 3FQK2 — position and weather

sailwx.info

Track history (hours):
 
Tides and Currents Weather Stations Pressure Air Temp Water Temp Dewpoint Dewpoint Depression Visibility Wind Speed Wind Dir Waves Ship Positions

Berge Ishizuchi

Last reported at 2018-Apr-20 02:32 UTC. Time now 2018-May-21 09:05 UTC.
Position N 35°58' W 005°43'.
Warning: this ship's position is 31 days out of date.

Length 292 m; draft 11 m.

Type: Cargo ship. MMSI: 353562000.

Date/timePositionNaut miles runAvg speedWind from/ knotsBaromVisibWave heightAir tempDewpointWater temp
2018-Apr-20 02:32N 35°58' W 005°43'514.2
2018-Apr-20 02:12N 35°58' W 005°38'312.6
2018-Apr-20 02:00N 35°58' W 005°35'611.5
2018-Apr-20 01:30N 35°60' W 005°28'5 9.3
2018-Apr-20 01:00N 36°03' W 005°25'4 8.6
2018-Apr-20 00:30N 36°08' W 005°24'0 0.7
2018-Apr-19 23:58N 36°08' W 005°23'0 0.1
2018-Apr-19 23:28N 36°08' W 005°23'0 0.0
2018-Apr-19 22:58N 36°08' W 005°23'0 0.1
2018-Apr-19 22:28N 36°08' W 005°23'0 0.2
2018-Apr-19 21:58N 36°08' W 005°23'0 0.0
2018-Apr-19 21:28N 36°08' W 005°23'0 0.2
2018-Apr-19 20:58N 36°08' W 005°23'0 0.1
2018-Apr-19 20:28N 36°08' W 005°23'0 0.1
2018-Apr-19 19:58N 36°08' W 005°23'0 0.1
2018-Apr-19 19:28N 36°08' W 005°23'0 0.2
2018-Apr-19 18:58N 36°08' W 005°23'0 0.1
2018-Apr-19 18:28N 36°08' W 005°23'0 0.0
2018-Apr-19 17:58N 36°08' W 005°23'0 0.0
2018-Apr-19 17:28N 36°08' W 005°23'0 0.0
2018-Apr-19 16:58N 36°08' W 005°23'0 0.2
2018-Apr-19 16:28N 36°08' W 005°23'0 0.4
2018-Apr-19 15:58N 36°08' W 005°23'0 0.0
2018-Apr-19 15:19N 36°08' W 005°23'0 0.0
2018-Apr-19 14:28N 36°08' W 005°23'0 0.0
2018-Apr-19 13:46N 36°08' W 005°23'0 0.0
2018-Apr-19 13:19N 36°08' W 005°23'0 0.1
2018-Apr-19 12:58N 36°08' W 005°23'0 0.0
2018-Apr-19 12:28N 36°08' W 005°23'0 0.0
2018-Apr-19 11:58N 36°08' W 005°23'0 0.1
2018-Apr-19 11:25N 36°08' W 005°23'0 0.1
2018-Apr-19 10:46N 36°08' W 005°23'0 0.1
2018-Apr-19 10:28N 36°08' W 005°23'0 0.1
2018-Apr-19 09:58N 36°08' W 005°23'0 0.1
2018-Apr-19 09:25N 36°08' W 005°23'0 0.1
2018-Apr-19 08:55N 36°08' W 005°23'0 0.2
2018-Apr-19 08:28N 36°08' W 005°23'0 0.1
2018-Apr-19 07:58N 36°08' W 005°23'0 0.1
2018-Apr-19 07:28N 36°08' W 005°23'0 0.0
2018-Apr-19 06:58N 36°08' W 005°23'0 0.5
2018-Apr-19 06:30N 36°08' W 005°23'0 0.6
2018-Apr-19 06:00N 36°08' W 005°23'2 4.3
2018-Apr-19 05:30N 36°06' W 005°22'3 5.0
2018-Apr-19 05:00N 36°04' W 005°19'2 4.7
2018-Apr-19 04:30N 36°04' W 005°16'2 4.9
2018-Apr-19 04:00N 36°04' W 005°13'3 5.1
2018-Apr-19 03:30N 36°05' W 005°10'1 2.0
2018-Apr-19 02:58N 36°05' W 005°09'2 0.9
2018-Apr-19 01:01N 36°06' W 005°07'0 6.1
2018-Apr-19 01:00N 36°06' W 005°07'28312.2
2018-Apr-18 01:44N 36°39' E 000°42'1413.8
2018-Apr-18 00:45N 36°42' E 000°59'  
2018-Apr-15 14:39N 36°50' E 013°00'315.3
2018-Apr-15 14:27N 36°49' E 013°04'510.4
2018-Apr-15 13:59N 36°48' E 013°09'712.8
2018-Apr-15 13:28N 36°46' E 013°17'612.2
2018-Apr-15 13:00N 36°43' E 013°24'812.8
2018-Apr-15 12:24N 36°41' E 013°33'513.0
2018-Apr-15 12:00N 36°39' E 013°39'713.7
2018-Apr-15 11:30N 36°37' E 013°47'612.5
2018-Apr-15 11:00N 36°35' E 013°54'915.1
2018-Apr-15 10:26N 36°32' E 014°04'612.8
2018-Apr-15 09:56N 36°30' E 014°12'611.1
2018-Apr-15 09:22N 36°28' E 014°19'513.5
2018-Apr-15 08:58N 36°26' E 014°26'612.7
2018-Apr-15 08:30N 36°24' E 014°32'713.5
2018-Apr-15 08:00N 36°22' E 014°40'714.8
2018-Apr-15 07:30N 36°19' E 014°49'610.5
2018-Apr-15 06:58N 36°19' E 014°56'912.2
2018-Apr-15 06:12N 36°18' E 015°07'38213.0
2018-Apr-14 00:52N 36°02' E 023°00'813.2
2018-Apr-14 00:16N 36°02' E 023°10'1712.9
2018-Apr-13 22:56N 36°02' E 023°31'613.0
2018-Apr-13 22:31N 36°03' E 023°38'3412.8
2018-Apr-13 19:50N 36°04' E 024°20'413.0
2018-Apr-13 19:30N 36°04' E 024°26'712.9
2018-Apr-13 18:56N 36°05' E 024°35'512.7
2018-Apr-13 18:31N 36°05' E 024°42'1812.9
2018-Apr-13 17:08N 36°06' E 025°03'213.2
2018-Apr-13 17:00N 36°06' E 025°06'713.3
2018-Apr-13 16:30N 36°06' E 025°14'713.4
2018-Apr-13 16:01N 36°06' E 025°22'24013.3
2018-Apr-12 21:58N 35°46' E 030°17'613.1
2018-Apr-12 21:30N 35°46' E 030°25'713.3
2018-Apr-12 20:58N 35°46' E 030°34'613.0
2018-Apr-12 20:30N 35°46' E 030°41'713.0
2018-Apr-12 20:00N 35°46' E 030°49'813.1
2018-Apr-12 19:22N 35°47' E 030°59'612.9
2018-Apr-12 18:56N 35°47' E 031°06'513.0
2018-Apr-12 18:30N 35°47' E 031°13'712.9
2018-Apr-12 18:00N 35°47' E 031°21'712.7
2018-Apr-12 17:28N 35°47' E 031°30'612.6
2018-Apr-12 17:00N 35°47' E 031°37'612.8
2018-Apr-12 16:30N 35°47' E 031°45'612.9
2018-Apr-12 16:00N 35°47' E 031°53'612.9
2018-Apr-12 15:30N 35°47' E 032°00'612.8
2018-Apr-12 15:00N 35°47' E 032°08'712.9
2018-Apr-12 14:25N 35°47' E 032°18'613.0
2018-Apr-12 13:58N 35°48' E 032°25'813.1
2018-Apr-12 13:22N 35°47' E 032°35'2112.9
2018-Apr-12 11:46N 35°49' E 032°60'413.3
2018-Apr-12 11:30N 35°50' E 033°04'  
Track history (hours):
 
Tides and Currents Weather Stations Pressure Air Temp Water Temp Dewpoint Dewpoint Depression Visibility Wind Speed Wind Dir Waves Ship Positions

Berge Ishizuchi

Last reported at 2018-Apr-20 02:32 UTC. Time now 2018-May-21 09:05 UTC.
Position N 35°58' W 005°43'.
Warning: this ship's position is 31 days out of date.

Length 292 m; draft 11 m.

Type: Cargo ship. MMSI: 353562000.

Date/timePositionNaut miles runAvg speedWind from/ knotsBaromVisibWave heightAir tempDewpointWater temp
2018-Apr-20 02:32N 35°58' W 005°43'514.2
2018-Apr-20 02:12N 35°58' W 005°38'312.6
2018-Apr-20 02:00N 35°58' W 005°35'611.5
2018-Apr-20 01:30N 35°60' W 005°28'5 9.3
2018-Apr-20 01:00N 36°03' W 005°25'4 8.6
2018-Apr-20 00:30N 36°08' W 005°24'0 0.7
2018-Apr-19 23:58N 36°08' W 005°23'0 0.1
2018-Apr-19 23:28N 36°08' W 005°23'0 0.0
2018-Apr-19 22:58N 36°08' W 005°23'0 0.1
2018-Apr-19 22:28N 36°08' W 005°23'0 0.2
2018-Apr-19 21:58N 36°08' W 005°23'0 0.0
2018-Apr-19 21:28N 36°08' W 005°23'0 0.2
2018-Apr-19 20:58N 36°08' W 005°23'0 0.1
2018-Apr-19 20:28N 36°08' W 005°23'0 0.1
2018-Apr-19 19:58N 36°08' W 005°23'0 0.1
2018-Apr-19 19:28N 36°08' W 005°23'0 0.2
2018-Apr-19 18:58N 36°08' W 005°23'0 0.1
2018-Apr-19 18:28N 36°08' W 005°23'0 0.0
2018-Apr-19 17:58N 36°08' W 005°23'0 0.0
2018-Apr-19 17:28N 36°08' W 005°23'0 0.0
2018-Apr-19 16:58N 36°08' W 005°23'0 0.2
2018-Apr-19 16:28N 36°08' W 005°23'0 0.4
2018-Apr-19 15:58N 36°08' W 005°23'0 0.0
2018-Apr-19 15:19N 36°08' W 005°23'0 0.0
2018-Apr-19 14:28N 36°08' W 005°23'0 0.0
2018-Apr-19 13:46N 36°08' W 005°23'0 0.0
2018-Apr-19 13:19N 36°08' W 005°23'0 0.1
2018-Apr-19 12:58N 36°08' W 005°23'0 0.0
2018-Apr-19 12:28N 36°08' W 005°23'0 0.0
2018-Apr-19 11:58N 36°08' W 005°23'0 0.1
2018-Apr-19 11:25N 36°08' W 005°23'0 0.1
2018-Apr-19 10:46N 36°08' W 005°23'0 0.1
2018-Apr-19 10:28N 36°08' W 005°23'0 0.1
2018-Apr-19 09:58N 36°08' W 005°23'0 0.1
2018-Apr-19 09:25N 36°08' W 005°23'0 0.1
2018-Apr-19 08:55N 36°08' W 005°23'0 0.2
2018-Apr-19 08:28N 36°08' W 005°23'0 0.1
2018-Apr-19 07:58N 36°08' W 005°23'0 0.1
2018-Apr-19 07:28N 36°08' W 005°23'0 0.0
2018-Apr-19 06:58N 36°08' W 005°23'0 0.5
2018-Apr-19 06:30N 36°08' W 005°23'0 0.6
2018-Apr-19 06:00N 36°08' W 005°23'2 4.3
2018-Apr-19 05:30N 36°06' W 005°22'3 5.0
2018-Apr-19 05:00N 36°04' W 005°19'2 4.7
2018-Apr-19 04:30N 36°04' W 005°16'2 4.9
2018-Apr-19 04:00N 36°04' W 005°13'3 5.1
2018-Apr-19 03:30N 36°05' W 005°10'1 2.0
2018-Apr-19 02:58N 36°05' W 005°09'2 0.9
2018-Apr-19 01:01N 36°06' W 005°07'0 6.1
2018-Apr-19 01:00N 36°06' W 005°07'28312.2
2018-Apr-18 01:44N 36°39' E 000°42'1413.8
2018-Apr-18 00:45N 36°42' E 000°59'  
2018-Apr-15 14:39N 36°50' E 013°00'315.3
2018-Apr-15 14:27N 36°49' E 013°04'510.4
2018-Apr-15 13:59N 36°48' E 013°09'712.8
2018-Apr-15 13:28N 36°46' E 013°17'612.2
2018-Apr-15 13:00N 36°43' E 013°24'812.8
2018-Apr-15 12:24N 36°41' E 013°33'513.0
2018-Apr-15 12:00N 36°39' E 013°39'713.7
2018-Apr-15 11:30N 36°37' E 013°47'612.5
2018-Apr-15 11:00N 36°35' E 013°54'915.1
2018-Apr-15 10:26N 36°32' E 014°04'612.8
2018-Apr-15 09:56N 36°30' E 014°12'611.1
2018-Apr-15 09:22N 36°28' E 014°19'513.5
2018-Apr-15 08:58N 36°26' E 014°26'612.7
2018-Apr-15 08:30N 36°24' E 014°32'713.5
2018-Apr-15 08:00N 36°22' E 014°40'714.8
2018-Apr-15 07:30N 36°19' E 014°49'610.5
2018-Apr-15 06:58N 36°19' E 014°56'912.2
2018-Apr-15 06:12N 36°18' E 015°07'38213.0
2018-Apr-14 00:52N 36°02' E 023°00'813.2
2018-Apr-14 00:16N 36°02' E 023°10'1712.9
2018-Apr-13 22:56N 36°02' E 023°31'613.0
2018-Apr-13 22:31N 36°03' E 023°38'3412.8
2018-Apr-13 19:50N 36°04' E 024°20'413.0
2018-Apr-13 19:30N 36°04' E 024°26'712.9
2018-Apr-13 18:56N 36°05' E 024°35'512.7
2018-Apr-13 18:31N 36°05' E 024°42'1812.9
2018-Apr-13 17:08N 36°06' E 025°03'213.2
2018-Apr-13 17:00N 36°06' E 025°06'713.3
2018-Apr-13 16:30N 36°06' E 025°14'713.4
2018-Apr-13 16:01N 36°06' E 025°22'24013.3
2018-Apr-12 21:58N 35°46' E 030°17'613.1
2018-Apr-12 21:30N 35°46' E 030°25'713.3
2018-Apr-12 20:58N 35°46' E 030°34'613.0
2018-Apr-12 20:30N 35°46' E 030°41'713.0
2018-Apr-12 20:00N 35°46' E 030°49'813.1
2018-Apr-12 19:22N 35°47' E 030°59'612.9
2018-Apr-12 18:56N 35°47' E 031°06'513.0
2018-Apr-12 18:30N 35°47' E 031°13'712.9
2018-Apr-12 18:00N 35°47' E 031°21'712.7
2018-Apr-12 17:28N 35°47' E 031°30'612.6
2018-Apr-12 17:00N 35°47' E 031°37'612.8
2018-Apr-12 16:30N 35°47' E 031°45'612.9
2018-Apr-12 16:00N 35°47' E 031°53'612.9
2018-Apr-12 15:30N 35°47' E 032°00'612.8
2018-Apr-12 15:00N 35°47' E 032°08'712.9
2018-Apr-12 14:25N 35°47' E 032°18'613.0
2018-Apr-12 13:58N 35°48' E 032°25'813.1
2018-Apr-12 13:22N 35°47' E 032°35'2112.9
2018-Apr-12 11:46N 35°49' E 032°60'413.3
2018-Apr-12 11:30N 35°50' E 033°04'  

Dump ship's entire track history